Terminal Aerodrome Forecast
Issued by NWS

Home | Current Version | Previous Version | Text Only | Print | Product List | Glossary On
Versions: 1 2 3 4 5 6 7 8 9 10 11 12 13 14 15 16
619
FTUS46 KSGX 300520
TAFPSP
TAF
KPSP 300520Z 3006/3106 VRB05KT P6SM FEW250
     FM302000 10012KT P6SM FEW250
     FM302300 32020G30KT P6SM FEW250=

USA.gov is the U.S. government's official web portal to all federal, state and local government web resources and services.